Aérodrome :
LOGIN :

S'inscrire | Disclaimer

   EN    FR    IT 

 










Légende :    VFR   VFR Marginal   IFR   IFR Intensif   IFR Très Intensif
Visi : 
Plafond : 
>= 8 km
>= 3000ft
5 à 8 km
1000 à 3000 ft
1500m à 5 km
500 à 1000 ft
800 à 1500m
200 à 500 ft
< 800m
< 200 ft
Symboles :   Orages  Brouillard  Fortes neiges  Fortes précipitations  Vent > 20 kt
SIGMETs :   Divers  Orages  Givrage  Turbulence  Onde Orograph.  Cendres Volcan.







- Altitude de l'aérodrome : 124 ft
- Code IATA : NHT
- Voir les cartes d'approche


EGWU - RAF Northolt

DERNIER METAR :
  • 142150Z 26005KT 9999 BKN033 BKN200 02/01 Q0988 NOSIG

METARs EXPIRÉS :
  • 142050Z 26006KT CAVOK 02/00 Q0988 TEMPO SCT020
  • 141950Z 25008KT CAVOK 03/01 Q0988 TEMPO SCT020

TAF TAF EGWU
Valide du 14 à 21h jusqu'au 15 à 15h UTC


141929Z 1421/1515 25007KT 9999 FEW040
TEMPO 1421/1424 BKN014
BECMG 1505/1507 BKN016
PROB30
TEMPO 1505/1515 7000 -SHRA BKN007
TEMPO 1512/1515 33015G25KT
Pas de NOTAMs connus pour ce terrain.
2 SIGMETs publiés pour la FIR London (EGTT) :
 
Turbulence forte
EGTT SIGMET 06 VALID 142300/150300 EGRR
EGTT LONDON FIR SEV TURB FCST SW OF LINE N5100 W00800 - N4934 W00416 SFC/FL060 STNR NC=
Turbulence forte
EGTT SIGMET 05 VALID 141900/142300 EGRR
EGTT LONDON FIR SEV TURB FCST SW OF LINE N5000 W00149 - N5152 W00623 SFC/FL060 STNR WKN=



MET'MAP, la Météo Aéronautique d'un coup d'oeil ! - Copyright ORBIFLY Décembre 2007 - Disclaimer

ORBIFLY MET'MAP TEAM :

Programmation & Développement : Alexandra Zaïnal
Conception & Développement : Baudouin d'Aumeries
Co-Programmation & Développement : Marc-Olivier Méhu
Soutien technique & logistique : Manuel Goepfert

Contact : metmap@orbifly.com




SOURCES & CREDITS :

   NOAA